sensor_id;sensor_type;location;lat;lon;timestamp;P1;durP1;ratioP1;P2;durP2;ratioP2
10641;SDS011;5369;49.586;8.646;2024-01-25T00:01:29;20.93;;;4.40;;
10641;SDS011;5369;49.586;8.646;2024-01-25T00:03:55;19.03;;;3.90;;
10641;SDS011;5369;49.586;8.646;2024-01-25T00:06:22;16.83;;;4.43;;
10641;SDS011;5369;49.586;8.646;2024-01-25T00:08:48;19.67;;;4.10;;
10641;SDS011;5369;49.586;8.646;2024-01-25T00:11:14;15.70;;;4.03;;
10641;SDS011;5369;49.586;8.646;2024-01-25T00:13:40;21.73;;;4.43;;
10641;SDS011;5369;49.586;8.646;2024-01-25T00:16:06;17.53;;;4.23;;
10641;SDS011;5369;49.586;8.646;2024-01-25T00:18:32;18.67;;;4.07;;
10641;SDS011;5369;49.586;8.646;2024-01-25T00:20:59;20.03;;;4.43;;
10641;SDS011;5369;49.586;8.646;2024-01-25T00:23:25;18.07;;;4.10;;
10641;SDS011;5369;49.586;8.646;2024-01-25T00:25:52;20.33;;;3.80;;
10641;SDS011;5369;49.586;8.646;2024-01-25T00:28:19;18.77;;;4.33;;
10641;SDS011;5369;49.586;8.646;2024-01-25T00:30:45;14.83;;;4.10;;
10641;SDS011;5369;49.586;8.646;2024-01-25T00:33:11;17.27;;;4.07;;
10641;SDS011;5369;49.586;8.646;2024-01-25T00:35:37;14.47;;;3.67;;
10641;SDS011;5369;49.586;8.646;2024-01-25T00:38:03;21.57;;;4.27;;
10641;SDS011;5369;49.586;8.646;2024-01-25T00:40:29;19.63;;;4.50;;
10641;SDS011;5369;49.586;8.646;2024-01-25T00:42:56;17.87;;;4.03;;
10641;SDS011;5369;49.586;8.646;2024-01-25T00:45:22;20.63;;;4.33;;
10641;SDS011;5369;49.586;8.646;2024-01-25T00:47:49;18.53;;;4.20;;
10641;SDS011;5369;49.586;8.646;2024-01-25T00:50:16;16.70;;;4.30;;
10641;SDS011;5369;49.586;8.646;2024-01-25T00:52:44;22.40;;;4.67;;
10641;SDS011;5369;49.586;8.646;2024-01-25T00:55:11;16.00;;;4.10;;
10641;SDS011;5369;49.586;8.646;2024-01-25T00:57:37;15.47;;;3.83;;
10641;SDS011;5369;49.586;8.646;2024-01-25T01:00:03;21.80;;;4.40;;
10641;SDS011;5369;49.586;8.646;2024-01-25T01:02:30;18.43;;;4.10;;
10641;SDS011;5369;49.586;8.646;2024-01-25T01:04:59;15.47;;;3.93;;
10641;SDS011;5369;49.586;8.646;2024-01-25T01:07:26;20.03;;;4.03;;
10641;SDS011;5369;49.586;8.646;2024-01-25T01:09:52;18.40;;;4.13;;
10641;SDS011;5369;49.586;8.646;2024-01-25T01:12:18;15.90;;;3.87;;
10641;SDS011;5369;49.586;8.646;2024-01-25T01:14:44;18.53;;;4.20;;
10641;SDS011;5369;49.586;8.646;2024-01-25T01:17:10;18.87;;;4.00;;
10641;SDS011;5369;49.586;8.646;2024-01-25T01:19:37;16.73;;;4.03;;
10641;SDS011;5369;49.586;8.646;2024-01-25T01:22:03;15.07;;;4.23;;
10641;SDS011;5369;49.586;8.646;2024-01-25T01:24:29;17.53;;;4.30;;
10641;SDS011;5369;49.586;8.646;2024-01-25T01:26:55;21.87;;;4.33;;
10641;SDS011;5369;49.586;8.646;2024-01-25T01:29:21;17.77;;;4.30;;
10641;SDS011;5369;49.586;8.646;2024-01-25T01:31:47;20.77;;;5.20;;
10641;SDS011;5369;49.586;8.646;2024-01-25T01:34:13;19.70;;;5.27;;
10641;SDS011;5369;49.586;8.646;2024-01-25T01:36:40;19.20;;;4.73;;
10641;SDS011;5369;49.586;8.646;2024-01-25T01:39:06;17.33;;;4.77;;
10641;SDS011;5369;49.586;8.646;2024-01-25T01:41:32;17.23;;;4.47;;
10641;SDS011;5369;49.586;8.646;2024-01-25T01:43:58;20.97;;;4.60;;
10641;SDS011;5369;49.586;8.646;2024-01-25T01:46:35;18.77;;;4.10;;
10641;SDS011;5369;49.586;8.646;2024-01-25T01:49:02;13.33;;;3.80;;
10641;SDS011;5369;49.586;8.646;2024-01-25T01:51:29;17.27;;;4.00;;
10641;SDS011;5369;49.586;8.646;2024-01-25T01:53:56;15.83;;;3.97;;
10641;SDS011;5369;49.586;8.646;2024-01-25T01:56:23;20.73;;;4.67;;
10641;SDS011;5369;49.586;8.646;2024-01-25T01:58:50;18.03;;;3.87;;
10641;SDS011;5369;49.586;8.646;2024-01-25T02:01:17;16.67;;;3.57;;
10641;SDS011;5369;49.586;8.646;2024-01-25T02:03:43;16.70;;;4.40;;
10641;SDS011;5369;49.586;8.646;2024-01-25T02:06:10;16.03;;;4.17;;
10641;SDS011;5369;49.586;8.646;2024-01-25T02:08:36;20.13;;;4.50;;
10641;SDS011;5369;49.586;8.646;2024-01-25T02:11:02;18.50;;;4.20;;
10641;SDS011;5369;49.586;8.646;2024-01-25T02:13:28;19.70;;;4.53;;
10641;SDS011;5369;49.586;8.646;2024-01-25T02:15:55;16.70;;;4.53;;
10641;SDS011;5369;49.586;8.646;2024-01-25T02:18:21;11.70;;;4.00;;
10641;SDS011;5369;49.586;8.646;2024-01-25T02:20:48;13.83;;;4.10;;
10641;SDS011;5369;49.586;8.646;2024-01-25T02:23:14;15.17;;;4.10;;
10641;SDS011;5369;49.586;8.646;2024-01-25T02:25:40;17.57;;;5.20;;
10641;SDS011;5369;49.586;8.646;2024-01-25T02:28:06;21.30;;;4.80;;
10641;SDS011;5369;49.586;8.646;2024-01-25T02:30:32;19.97;;;4.77;;
10641;SDS011;5369;49.586;8.646;2024-01-25T02:32:58;13.43;;;4.33;;
10641;SDS011;5369;49.586;8.646;2024-01-25T02:35:24;17.80;;;4.50;;
10641;SDS011;5369;49.586;8.646;2024-01-25T02:37:50;20.47;;;4.70;;
10641;SDS011;5369;49.586;8.646;2024-01-25T02:40:17;15.93;;;4.67;;
10641;SDS011;5369;49.586;8.646;2024-01-25T02:42:43;18.03;;;4.60;;
10641;SDS011;5369;49.586;8.646;2024-01-25T02:45:09;14.60;;;3.73;;
10641;SDS011;5369;49.586;8.646;2024-01-25T02:47:35;14.70;;;3.90;;
10641;SDS011;5369;49.586;8.646;2024-01-25T02:50:01;14.47;;;3.80;;
10641;SDS011;5369;49.586;8.646;2024-01-25T02:52:28;16.53;;;3.97;;
10641;SDS011;5369;49.586;8.646;2024-01-25T02:54:54;14.87;;;3.90;;
10641;SDS011;5369;49.586;8.646;2024-01-25T02:57:20;15.70;;;3.87;;
10641;SDS011;5369;49.586;8.646;2024-01-25T02:59:46;19.20;;;4.13;;
10641;SDS011;5369;49.586;8.646;2024-01-25T03:02:12;14.90;;;4.30;;
10641;SDS011;5369;49.586;8.646;2024-01-25T03:04:39;16.70;;;4.13;;
10641;SDS011;5369;49.586;8.646;2024-01-25T03:07:05;12.60;;;3.57;;
10641;SDS011;5369;49.586;8.646;2024-01-25T03:09:31;15.77;;;3.90;;
10641;SDS011;5369;49.586;8.646;2024-01-25T03:11:57;16.60;;;4.20;;
10641;SDS011;5369;49.586;8.646;2024-01-25T03:14:24;14.00;;;3.97;;
10641;SDS011;5369;49.586;8.646;2024-01-25T03:16:50;19.43;;;4.17;;
10641;SDS011;5369;49.586;8.646;2024-01-25T03:19:16;16.90;;;3.93;;
10641;SDS011;5369;49.586;8.646;2024-01-25T03:21:42;16.13;;;3.73;;
10641;SDS011;5369;49.586;8.646;2024-01-25T03:24:09;12.73;;;4.00;;
10641;SDS011;5369;49.586;8.646;2024-01-25T03:26:35;17.43;;;3.90;;
10641;SDS011;5369;49.586;8.646;2024-01-25T03:29:01;16.93;;;3.60;;
10641;SDS011;5369;49.586;8.646;2024-01-25T03:31:27;15.03;;;3.87;;
10641;SDS011;5369;49.586;8.646;2024-01-25T03:33:54;15.03;;;3.67;;
10641;SDS011;5369;49.586;8.646;2024-01-25T03:36:20;14.20;;;3.07;;
10641;SDS011;5369;49.586;8.646;2024-01-25T03:38:46;20.20;;;4.33;;
10641;SDS011;5369;49.586;8.646;2024-01-25T03:41:12;14.47;;;3.40;;
10641;SDS011;5369;49.586;8.646;2024-01-25T03:43:38;11.73;;;3.47;;
10641;SDS011;5369;49.586;8.646;2024-01-25T03:46:04;15.77;;;4.10;;
10641;SDS011;5369;49.586;8.646;2024-01-25T03:48:30;16.50;;;3.73;;
10641;SDS011;5369;49.586;8.646;2024-01-25T03:50:57;17.30;;;3.87;;
10641;SDS011;5369;49.586;8.646;2024-01-25T03:53:23;19.33;;;4.37;;
10641;SDS011;5369;49.586;8.646;2024-01-25T03:55:49;14.30;;;4.17;;
10641;SDS011;5369;49.586;8.646;2024-01-25T03:58:18;16.23;;;4.07;;
10641;SDS011;5369;49.586;8.646;2024-01-25T04:00:45;15.37;;;4.23;;
10641;SDS011;5369;49.586;8.646;2024-01-25T04:03:11;15.60;;;4.00;;
10641;SDS011;5369;49.586;8.646;2024-01-25T04:05:37;14.17;;;3.63;;
10641;SDS011;5369;49.586;8.646;2024-01-25T04:08:07;18.07;;;4.53;;
10641;SDS011;5369;49.586;8.646;2024-01-25T04:10:33;17.67;;;4.07;;
10641;SDS011;5369;49.586;8.646;2024-01-25T04:12:59;13.17;;;4.07;;
10641;SDS011;5369;49.586;8.646;2024-01-25T04:15:26;16.33;;;4.47;;
10641;SDS011;5369;49.586;8.646;2024-01-25T04:17:53;22.17;;;9.20;;
10641;SDS011;5369;49.586;8.646;2024-01-25T04:20:21;18.40;;;6.20;;
10641;SDS011;5369;49.586;8.646;2024-01-25T04:22:47;15.57;;;4.83;;
10641;SDS011;5369;49.586;8.646;2024-01-25T04:25:13;13.87;;;4.20;;
10641;SDS011;5369;49.586;8.646;2024-01-25T04:27:40;13.00;;;3.77;;
10641;SDS011;5369;49.586;8.646;2024-01-25T04:30:07;15.43;;;4.17;;
10641;SDS011;5369;49.586;8.646;2024-01-25T04:32:34;17.40;;;4.53;;
10641;SDS011;5369;49.586;8.646;2024-01-25T04:35:00;12.97;;;4.10;;
10641;SDS011;5369;49.586;8.646;2024-01-25T04:37:26;15.07;;;4.00;;
10641;SDS011;5369;49.586;8.646;2024-01-25T04:39:52;13.67;;;4.00;;
10641;SDS011;5369;49.586;8.646;2024-01-25T04:42:19;16.70;;;4.00;;
10641;SDS011;5369;49.586;8.646;2024-01-25T04:44:45;17.23;;;4.93;;
10641;SDS011;5369;49.586;8.646;2024-01-25T04:47:11;16.00;;;4.67;;
10641;SDS011;5369;49.586;8.646;2024-01-25T04:49:37;19.20;;;4.10;;
10641;SDS011;5369;49.586;8.646;2024-01-25T04:52:03;12.63;;;4.03;;
10641;SDS011;5369;49.586;8.646;2024-01-25T04:54:30;13.30;;;4.10;;
10641;SDS011;5369;49.586;8.646;2024-01-25T04:56:56;15.70;;;4.20;;
10641;SDS011;5369;49.586;8.646;2024-01-25T04:59:22;12.73;;;4.13;;
10641;SDS011;5369;49.586;8.646;2024-01-25T05:01:49;14.27;;;4.00;;
10641;SDS011;5369;49.586;8.646;2024-01-25T05:04:17;12.80;;;3.70;;
10641;SDS011;5369;49.586;8.646;2024-01-25T05:06:43;11.70;;;3.90;;
10641;SDS011;5369;49.586;8.646;2024-01-25T05:09:09;15.65;;;4.82;;
10641;SDS011;5369;49.586;8.646;2024-01-25T05:11:38;14.27;;;3.97;;
10641;SDS011;5369;49.586;8.646;2024-01-25T05:14:05;14.20;;;3.50;;
10641;SDS011;5369;49.586;8.646;2024-01-25T05:16:31;14.33;;;3.83;;
10641;SDS011;5369;49.586;8.646;2024-01-25T05:18:58;16.63;;;3.80;;
10641;SDS011;5369;49.586;8.646;2024-01-25T05:21:24;14.43;;;3.97;;
10641;SDS011;5369;49.586;8.646;2024-01-25T05:23:50;17.80;;;3.60;;
10641;SDS011;5369;49.586;8.646;2024-01-25T05:26:16;11.33;;;3.60;;
10641;SDS011;5369;49.586;8.646;2024-01-25T05:28:42;16.23;;;3.67;;
10641;SDS011;5369;49.586;8.646;2024-01-25T05:31:09;14.53;;;3.47;;
10641;SDS011;5369;49.586;8.646;2024-01-25T05:33:41;19.77;;;4.30;;
10641;SDS011;5369;49.586;8.646;2024-01-25T05:36:07;14.87;;;3.50;;
10641;SDS011;5369;49.586;8.646;2024-01-25T05:38:34;13.50;;;3.70;;
10641;SDS011;5369;49.586;8.646;2024-01-25T05:41:00;11.73;;;3.10;;
10641;SDS011;5369;49.586;8.646;2024-01-25T05:43:26;14.40;;;3.57;;
10641;SDS011;5369;49.586;8.646;2024-01-25T05:45:52;12.70;;;3.60;;
10641;SDS011;5369;49.586;8.646;2024-01-25T05:48:18;14.70;;;3.57;;
10641;SDS011;5369;49.586;8.646;2024-01-25T05:50:44;15.40;;;3.47;;
10641;SDS011;5369;49.586;8.646;2024-01-25T05:53:10;16.50;;;3.53;;
10641;SDS011;5369;49.586;8.646;2024-01-25T05:55:37;11.40;;;3.20;;
10641;SDS011;5369;49.586;8.646;2024-01-25T05:58:03;13.93;;;3.90;;
10641;SDS011;5369;49.586;8.646;2024-01-25T06:00:29;14.80;;;3.83;;
10641;SDS011;5369;49.586;8.646;2024-01-25T06:02:55;13.40;;;3.70;;
10641;SDS011;5369;49.586;8.646;2024-01-25T06:05:21;19.67;;;4.70;;
10641;SDS011;5369;49.586;8.646;2024-01-25T06:07:49;15.13;;;4.53;;
10641;SDS011;5369;49.586;8.646;2024-01-25T06:10:15;16.50;;;4.87;;
10641;SDS011;5369;49.586;8.646;2024-01-25T06:12:41;17.40;;;5.30;;
10641;SDS011;5369;49.586;8.646;2024-01-25T06:15:08;14.33;;;4.43;;
10641;SDS011;5369;49.586;8.646;2024-01-25T06:17:34;17.30;;;4.80;;
10641;SDS011;5369;49.586;8.646;2024-01-25T06:20:01;15.73;;;4.47;;
10641;SDS011;5369;49.586;8.646;2024-01-25T06:22:27;15.50;;;4.57;;
10641;SDS011;5369;49.586;8.646;2024-01-25T06:24:53;14.37;;;4.17;;
10641;SDS011;5369;49.586;8.646;2024-01-25T06:27:20;17.70;;;4.90;;
10641;SDS011;5369;49.586;8.646;2024-01-25T06:29:46;15.10;;;4.93;;
10641;SDS011;5369;49.586;8.646;2024-01-25T06:32:12;18.97;;;4.40;;
10641;SDS011;5369;49.586;8.646;2024-01-25T06:34:38;17.20;;;4.63;;
10641;SDS011;5369;49.586;8.646;2024-01-25T06:37:05;19.70;;;5.40;;
10641;SDS011;5369;49.586;8.646;2024-01-25T06:39:31;15.10;;;4.70;;
10641;SDS011;5369;49.586;8.646;2024-01-25T06:41:57;13.00;;;4.40;;
10641;SDS011;5369;49.586;8.646;2024-01-25T06:44:23;21.97;;;5.30;;
10641;SDS011;5369;49.586;8.646;2024-01-25T06:46:49;19.20;;;5.80;;
10641;SDS011;5369;49.586;8.646;2024-01-25T06:49:16;17.80;;;5.67;;
10641;SDS011;5369;49.586;8.646;2024-01-25T06:51:42;19.37;;;6.50;;
10641;SDS011;5369;49.586;8.646;2024-01-25T06:54:08;19.80;;;7.03;;
10641;SDS011;5369;49.586;8.646;2024-01-25T06:56:34;21.63;;;7.13;;
10641;SDS011;5369;49.586;8.646;2024-01-25T06:59:01;19.90;;;7.00;;
10641;SDS011;5369;49.586;8.646;2024-01-25T07:01:27;15.27;;;6.93;;
10641;SDS011;5369;49.586;8.646;2024-01-25T07:03:55;29.03;;;7.40;;
10641;SDS011;5369;49.586;8.646;2024-01-25T07:06:21;20.10;;;7.30;;
10641;SDS011;5369;49.586;8.646;2024-01-25T07:08:47;25.73;;;7.27;;
10641;SDS011;5369;49.586;8.646;2024-01-25T07:11:14;20.10;;;6.80;;
10641;SDS011;5369;49.586;8.646;2024-01-25T07:13:42;22.43;;;7.20;;
10641;SDS011;5369;49.586;8.646;2024-01-25T07:16:08;17.57;;;6.07;;
10641;SDS011;5369;49.586;8.646;2024-01-25T07:18:34;19.13;;;6.10;;
10641;SDS011;5369;49.586;8.646;2024-01-25T07:21:00;17.63;;;6.33;;
10641;SDS011;5369;49.586;8.646;2024-01-25T07:23:29;23.50;;;6.60;;
10641;SDS011;5369;49.586;8.646;2024-01-25T07:25:55;17.53;;;5.47;;
10641;SDS011;5369;49.586;8.646;2024-01-25T07:28:21;22.30;;;5.70;;
10641;SDS011;5369;49.586;8.646;2024-01-25T07:30:47;19.37;;;5.33;;
10641;SDS011;5369;49.586;8.646;2024-01-25T07:33:14;14.53;;;5.30;;
10641;SDS011;5369;49.586;8.646;2024-01-25T07:35:41;16.97;;;4.83;;
10641;SDS011;5369;49.586;8.646;2024-01-25T07:38:17;21.97;;;5.17;;
10641;SDS011;5369;49.586;8.646;2024-01-25T07:40:43;21.77;;;5.50;;
10641;SDS011;5369;49.586;8.646;2024-01-25T07:43:09;20.00;;;5.23;;
10641;SDS011;5369;49.586;8.646;2024-01-25T07:45:35;23.37;;;5.57;;
10641;SDS011;5369;49.586;8.646;2024-01-25T07:48:03;18.27;;;5.23;;
10641;SDS011;5369;49.586;8.646;2024-01-25T07:50:29;20.67;;;5.00;;
10641;SDS011;5369;49.586;8.646;2024-01-25T07:52:55;19.93;;;5.83;;
10641;SDS011;5369;49.586;8.646;2024-01-25T07:55:21;20.60;;;6.20;;
10641;SDS011;5369;49.586;8.646;2024-01-25T07:57:47;21.53;;;6.00;;
10641;SDS011;5369;49.586;8.646;2024-01-25T08:00:14;23.47;;;6.57;;
10641;SDS011;5369;49.586;8.646;2024-01-25T08:02:40;21.90;;;5.90;;
10641;SDS011;5369;49.586;8.646;2024-01-25T08:05:08;22.47;;;6.63;;
10641;SDS011;5369;49.586;8.646;2024-01-25T08:07:35;22.53;;;6.43;;
10641;SDS011;5369;49.586;8.646;2024-01-25T08:10:03;17.50;;;5.23;;
10641;SDS011;5369;49.586;8.646;2024-01-25T08:12:29;15.73;;;5.50;;
10641;SDS011;5369;49.586;8.646;2024-01-25T08:14:55;18.20;;;5.67;;
10641;SDS011;5369;49.586;8.646;2024-01-25T08:17:21;18.57;;;5.57;;
10641;SDS011;5369;49.586;8.646;2024-01-25T08:19:48;23.53;;;6.37;;
10641;SDS011;5369;49.586;8.646;2024-01-25T08:22:14;21.03;;;5.83;;
10641;SDS011;5369;49.586;8.646;2024-01-25T08:24:40;19.40;;;5.63;;
10641;SDS011;5369;49.586;8.646;2024-01-25T08:27:06;18.97;;;5.93;;
10641;SDS011;5369;49.586;8.646;2024-01-25T08:29:33;20.27;;;6.00;;
10641;SDS011;5369;49.586;8.646;2024-01-25T08:31:59;20.77;;;6.17;;
10641;SDS011;5369;49.586;8.646;2024-01-25T08:34:25;21.50;;;6.27;;
10641;SDS011;5369;49.586;8.646;2024-01-25T08:36:51;23.80;;;8.90;;
10641;SDS011;5369;49.586;8.646;2024-01-25T08:39:17;34.63;;;15.17;;
10641;SDS011;5369;49.586;8.646;2024-01-25T08:41:43;28.17;;;11.23;;
10641;SDS011;5369;49.586;8.646;2024-01-25T08:44:10;35.10;;;17.57;;
10641;SDS011;5369;49.586;8.646;2024-01-25T08:46:37;29.50;;;12.50;;
10641;SDS011;5369;49.586;8.646;2024-01-25T08:49:03;23.67;;;10.83;;
10641;SDS011;5369;49.586;8.646;2024-01-25T08:51:33;29.00;;;10.43;;
10641;SDS011;5369;49.586;8.646;2024-01-25T08:54:00;28.77;;;10.50;;
10641;SDS011;5369;49.586;8.646;2024-01-25T08:56:26;25.30;;;10.20;;
10641;SDS011;5369;49.586;8.646;2024-01-25T08:58:52;29.30;;;10.70;;
10641;SDS011;5369;49.586;8.646;2024-01-25T09:01:18;23.57;;;8.03;;
10641;SDS011;5369;49.586;8.646;2024-01-25T09:03:44;18.87;;;7.03;;
10641;SDS011;5369;49.586;8.646;2024-01-25T09:06:11;19.50;;;6.10;;
10641;SDS011;5369;49.586;8.646;2024-01-25T09:08:38;25.73;;;6.00;;
10641;SDS011;5369;49.586;8.646;2024-01-25T09:11:04;20.53;;;6.57;;
10641;SDS011;5369;49.586;8.646;2024-01-25T09:13:30;19.53;;;6.00;;
10641;SDS011;5369;49.586;8.646;2024-01-25T09:15:57;19.27;;;5.80;;
10641;SDS011;5369;49.586;8.646;2024-01-25T09:18:24;17.80;;;5.43;;
10641;SDS011;5369;49.586;8.646;2024-01-25T09:20:50;22.07;;;5.73;;
10641;SDS011;5369;49.586;8.646;2024-01-25T09:23:16;19.23;;;5.57;;
10641;SDS011;5369;49.586;8.646;2024-01-25T09:25:45;19.00;;;4.63;;
10641;SDS011;5369;49.586;8.646;2024-01-25T09:28:12;25.03;;;5.13;;
10641;SDS011;5369;49.586;8.646;2024-01-25T09:30:38;22.20;;;5.73;;
10641;SDS011;5369;49.586;8.646;2024-01-25T09:33:05;19.13;;;5.60;;
10641;SDS011;5369;49.586;8.646;2024-01-25T09:35:31;22.80;;;5.20;;
10641;SDS011;5369;49.586;8.646;2024-01-25T09:37:57;25.03;;;6.17;;
10641;SDS011;5369;49.586;8.646;2024-01-25T09:40:24;24.20;;;6.07;;
10641;SDS011;5369;49.586;8.646;2024-01-25T09:42:51;25.97;;;6.37;;
10641;SDS011;5369;49.586;8.646;2024-01-25T09:45:18;26.47;;;5.80;;
10641;SDS011;5369;49.586;8.646;2024-01-25T09:47:45;25.33;;;6.40;;
10641;SDS011;5369;49.586;8.646;2024-01-25T09:50:11;18.40;;;5.63;;
10641;SDS011;5369;49.586;8.646;2024-01-25T09:52:42;25.43;;;6.00;;
10641;SDS011;5369;49.586;8.646;2024-01-25T09:55:12;22.67;;;5.60;;
10641;SDS011;5369;49.586;8.646;2024-01-25T09:57:39;21.73;;;5.63;;
10641;SDS011;5369;49.586;8.646;2024-01-25T10:00:07;18.13;;;5.63;;
10641;SDS011;5369;49.586;8.646;2024-01-25T10:02:37;24.03;;;5.10;;
10641;SDS011;5369;49.586;8.646;2024-01-25T10:05:03;22.90;;;5.33;;
10641;SDS011;5369;49.586;8.646;2024-01-25T10:07:37;24.83;;;5.63;;
10641;SDS011;5369;49.586;8.646;2024-01-25T10:10:03;25.23;;;5.83;;
10641;SDS011;5369;49.586;8.646;2024-01-25T10:12:31;21.83;;;5.17;;
10641;SDS011;5369;49.586;8.646;2024-01-25T10:14:57;22.63;;;5.43;;
10641;SDS011;5369;49.586;8.646;2024-01-25T10:17:24;19.80;;;5.23;;
10641;SDS011;5369;49.586;8.646;2024-01-25T10:19:50;21.30;;;4.80;;
10641;SDS011;5369;49.586;8.646;2024-01-25T10:22:16;23.30;;;5.50;;
10641;SDS011;5369;49.586;8.646;2024-01-25T10:24:42;23.10;;;5.10;;
10641;SDS011;5369;49.586;8.646;2024-01-25T10:27:09;18.83;;;4.43;;
10641;SDS011;5369;49.586;8.646;2024-01-25T10:29:35;19.63;;;4.47;;
10641;SDS011;5369;49.586;8.646;2024-01-25T10:32:02;24.50;;;4.60;;
10641;SDS011;5369;49.586;8.646;2024-01-25T10:34:28;23.90;;;5.00;;
10641;SDS011;5369;49.586;8.646;2024-01-25T10:36:54;25.20;;;5.07;;
10641;SDS011;5369;49.586;8.646;2024-01-25T10:39:21;20.53;;;4.83;;
10641;SDS011;5369;49.586;8.646;2024-01-25T10:41:47;23.67;;;4.97;;
10641;SDS011;5369;49.586;8.646;2024-01-25T10:44:16;21.17;;;5.10;;
10641;SDS011;5369;49.586;8.646;2024-01-25T10:46:46;25.43;;;5.30;;
10641;SDS011;5369;49.586;8.646;2024-01-25T10:49:13;26.70;;;4.93;;
10641;SDS011;5369;49.586;8.646;2024-01-25T10:51:42;22.90;;;5.13;;
10641;SDS011;5369;49.586;8.646;2024-01-25T10:54:08;19.23;;;4.80;;
10641;SDS011;5369;49.586;8.646;2024-01-25T10:56:35;17.47;;;3.97;;
10641;SDS011;5369;49.586;8.646;2024-01-25T10:59:02;21.80;;;5.10;;
10641;SDS011;5369;49.586;8.646;2024-01-25T11:01:28;26.20;;;5.10;;
10641;SDS011;5369;49.586;8.646;2024-01-25T11:03:55;19.87;;;4.33;;
10641;SDS011;5369;49.586;8.646;2024-01-25T11:06:21;20.00;;;4.83;;
10641;SDS011;5369;49.586;8.646;2024-01-25T11:08:48;19.53;;;4.47;;
10641;SDS011;5369;49.586;8.646;2024-01-25T11:11:15;24.33;;;4.50;;
10641;SDS011;5369;49.586;8.646;2024-01-25T11:13:41;20.03;;;4.50;;
10641;SDS011;5369;49.586;8.646;2024-01-25T11:16:15;19.43;;;4.30;;
10641;SDS011;5369;49.586;8.646;2024-01-25T11:18:51;18.20;;;4.97;;
10641;SDS011;5369;49.586;8.646;2024-01-25T11:24:02;20.63;;;4.93;;
10641;SDS011;5369;49.586;8.646;2024-01-25T11:26:29;17.23;;;4.03;;
10641;SDS011;5369;49.586;8.646;2024-01-25T11:28:57;17.13;;;4.30;;
10641;SDS011;5369;49.586;8.646;2024-01-25T11:31:26;19.63;;;4.87;;
10641;SDS011;5369;49.586;8.646;2024-01-25T11:33:53;14.83;;;3.60;;
10641;SDS011;5369;49.586;8.646;2024-01-25T11:36:22;19.73;;;4.50;;
10641;SDS011;5369;49.586;8.646;2024-01-25T11:38:48;18.53;;;4.10;;
10641;SDS011;5369;49.586;8.646;2024-01-25T11:41:14;17.97;;;4.43;;
10641;SDS011;5369;49.586;8.646;2024-01-25T11:43:41;21.47;;;5.03;;
10641;SDS011;5369;49.586;8.646;2024-01-25T11:46:07;20.47;;;4.57;;
10641;SDS011;5369;49.586;8.646;2024-01-25T11:48:37;17.53;;;4.30;;
10641;SDS011;5369;49.586;8.646;2024-01-25T11:51:04;18.70;;;4.57;;
10641;SDS011;5369;49.586;8.646;2024-01-25T11:53:30;19.67;;;4.37;;
10641;SDS011;5369;49.586;8.646;2024-01-25T11:55:56;18.20;;;3.93;;
10641;SDS011;5369;49.586;8.646;2024-01-25T11:58:23;16.00;;;4.10;;
10641;SDS011;5369;49.586;8.646;2024-01-25T12:00:49;17.53;;;4.07;;
10641;SDS011;5369;49.586;8.646;2024-01-25T12:03:16;18.73;;;3.97;;
10641;SDS011;5369;49.586;8.646;2024-01-25T12:05:42;17.87;;;4.17;;
10641;SDS011;5369;49.586;8.646;2024-01-25T12:08:09;19.10;;;4.47;;
10641;SDS011;5369;49.586;8.646;2024-01-25T12:10:38;15.17;;;3.97;;
10641;SDS011;5369;49.586;8.646;2024-01-25T12:13:07;15.27;;;3.73;;
10641;SDS011;5369;49.586;8.646;2024-01-25T12:15:35;12.57;;;4.03;;
10641;SDS011;5369;49.586;8.646;2024-01-25T12:18:01;15.40;;;4.10;;
10641;SDS011;5369;49.586;8.646;2024-01-25T12:20:28;14.23;;;3.43;;
10641;SDS011;5369;49.586;8.646;2024-01-25T12:22:54;12.53;;;4.10;;
10641;SDS011;5369;49.586;8.646;2024-01-25T12:25:20;17.67;;;4.47;;
10641;SDS011;5369;49.586;8.646;2024-01-25T12:27:47;17.13;;;4.43;;
10641;SDS011;5369;49.586;8.646;2024-01-25T12:30:15;18.20;;;4.07;;
10641;SDS011;5369;49.586;8.646;2024-01-25T12:32:41;15.50;;;4.00;;
10641;SDS011;5369;49.586;8.646;2024-01-25T12:35:07;14.50;;;3.80;;
10641;SDS011;5369;49.586;8.646;2024-01-25T12:37:34;17.13;;;3.80;;
10641;SDS011;5369;49.586;8.646;2024-01-25T12:40:00;14.00;;;3.90;;
10641;SDS011;5369;49.586;8.646;2024-01-25T12:42:27;15.17;;;4.40;;
10641;SDS011;5369;49.586;8.646;2024-01-25T12:44:53;17.43;;;4.10;;
10641;SDS011;5369;49.586;8.646;2024-01-25T12:47:20;16.57;;;4.33;;
10641;SDS011;5369;49.586;8.646;2024-01-25T12:49:46;16.73;;;4.53;;
10641;SDS011;5369;49.586;8.646;2024-01-25T12:52:12;16.57;;;4.40;;
10641;SDS011;5369;49.586;8.646;2024-01-25T12:54:39;19.10;;;4.73;;
10641;SDS011;5369;49.586;8.646;2024-01-25T12:57:06;18.97;;;4.80;;
10641;SDS011;5369;49.586;8.646;2024-01-25T12:59:33;18.03;;;4.27;;
10641;SDS011;5369;49.586;8.646;2024-01-25T13:01:59;17.50;;;4.87;;
10641;SDS011;5369;49.586;8.646;2024-01-25T13:04:25;15.77;;;4.80;;
10641;SDS011;5369;49.586;8.646;2024-01-25T13:06:55;17.93;;;4.63;;
10641;SDS011;5369;49.586;8.646;2024-01-25T13:09:24;19.47;;;4.73;;
10641;SDS011;5369;49.586;8.646;2024-01-25T13:11:50;17.63;;;5.10;;
10641;SDS011;5369;49.586;8.646;2024-01-25T13:14:17;18.63;;;4.63;;
10641;SDS011;5369;49.586;8.646;2024-01-25T13:16:43;14.47;;;4.30;;
10641;SDS011;5369;49.586;8.646;2024-01-25T13:19:10;20.57;;;4.43;;
10641;SDS011;5369;49.586;8.646;2024-01-25T13:21:37;15.67;;;4.20;;
10641;SDS011;5369;49.586;8.646;2024-01-25T13:24:04;13.87;;;4.03;;
10641;SDS011;5369;49.586;8.646;2024-01-25T13:26:34;14.93;;;4.00;;
10641;SDS011;5369;49.586;8.646;2024-01-25T13:29:00;15.03;;;4.07;;
10641;SDS011;5369;49.586;8.646;2024-01-25T13:31:26;18.43;;;4.50;;
10641;SDS011;5369;49.586;8.646;2024-01-25T13:33:52;16.77;;;4.60;;
10641;SDS011;5369;49.586;8.646;2024-01-25T13:36:18;13.37;;;3.63;;
10641;SDS011;5369;49.586;8.646;2024-01-25T13:38:45;13.70;;;3.87;;
10641;SDS011;5369;49.586;8.646;2024-01-25T13:41:11;14.17;;;4.43;;
10641;SDS011;5369;49.586;8.646;2024-01-25T13:43:37;15.90;;;3.70;;
10641;SDS011;5369;49.586;8.646;2024-01-25T13:46:03;17.57;;;4.07;;
10641;SDS011;5369;49.586;8.646;2024-01-25T13:48:29;16.90;;;3.70;;
10641;SDS011;5369;49.586;8.646;2024-01-25T13:50:55;15.40;;;4.17;;
10641;SDS011;5369;49.586;8.646;2024-01-25T13:53:21;16.53;;;4.10;;
10641;SDS011;5369;49.586;8.646;2024-01-25T13:55:47;16.00;;;4.17;;
10641;SDS011;5369;49.586;8.646;2024-01-25T13:58:13;11.87;;;3.60;;
10641;SDS011;5369;49.586;8.646;2024-01-25T14:00:40;14.80;;;4.13;;
10641;SDS011;5369;49.586;8.646;2024-01-25T14:03:06;14.83;;;4.23;;
10641;SDS011;5369;49.586;8.646;2024-01-25T14:05:33;18.37;;;4.07;;
10641;SDS011;5369;49.586;8.646;2024-01-25T14:07:59;15.43;;;4.30;;
10641;SDS011;5369;49.586;8.646;2024-01-25T14:10:25;14.13;;;3.60;;
10641;SDS011;5369;49.586;8.646;2024-01-25T14:12:53;15.03;;;4.27;;
10641;SDS011;5369;49.586;8.646;2024-01-25T14:15:19;14.27;;;4.30;;
10641;SDS011;5369;49.586;8.646;2024-01-25T14:17:45;15.93;;;3.80;;
10641;SDS011;5369;49.586;8.646;2024-01-25T14:20:11;16.37;;;4.20;;
10641;SDS011;5369;49.586;8.646;2024-01-25T14:22:38;14.93;;;3.80;;
10641;SDS011;5369;49.586;8.646;2024-01-25T14:25:04;20.20;;;4.50;;
10641;SDS011;5369;49.586;8.646;2024-01-25T14:27:30;16.47;;;4.00;;
10641;SDS011;5369;49.586;8.646;2024-01-25T14:29:58;15.90;;;3.90;;
10641;SDS011;5369;49.586;8.646;2024-01-25T14:32:25;17.73;;;3.93;;
10641;SDS011;5369;49.586;8.646;2024-01-25T14:34:51;21.07;;;4.40;;
10641;SDS011;5369;49.586;8.646;2024-01-25T14:37:18;18.60;;;4.17;;
10641;SDS011;5369;49.586;8.646;2024-01-25T14:39:44;17.03;;;4.40;;
10641;SDS011;5369;49.586;8.646;2024-01-25T14:42:11;15.40;;;3.50;;
10641;SDS011;5369;49.586;8.646;2024-01-25T14:44:38;18.90;;;4.03;;
10641;SDS011;5369;49.586;8.646;2024-01-25T14:47:04;16.43;;;4.47;;